Time;durP1;ratioP1;P1;durP2;ratioP2;P2;SDS_P1;SDS_P2;PMS_P1;PMS_P2;Temp;Humidity;BMP_temperature;BMP_pressure;BME280_temperature;BME280_humidity;BME280_pressure;Samples;Min_cycle;Max_cycle;Signal;HPM_P1;HPM_P2
2023/06/08 00:01:42;;;;;;;14.57;4.68;;;;;;;19.65;63.36;101216.94;4995632;28;20909;-79
2023/06/08 00:04:08;;;;;;;14.27;4.90;;;;;;;19.64;63.60;101223.38;4996008;28;20394;-78
2023/06/08 00:06:34;;;;;;;10.17;4.90;;;;;;;19.63;63.61;101221.69;4995621;28;20393;-79
2023/06/08 00:09:04;;;;;;;11.68;4.78;;;;;;;19.66;63.67;101223.13;4995509;28;20382;-79
2023/06/08 00:11:31;;;;;;;8.95;4.70;;;;;;;19.75;63.39;101223.72;4995418;28;20381;-79
2023/06/08 00:13:57;;;;;;;9.68;4.40;;;;;;;19.77;63.19;101219.78;4995366;28;20378;-79
2023/06/08 00:16:22;;;;;;;9.40;4.35;;;;;;;19.78;63.32;101224.09;4996334;28;20428;-78
2023/06/08 00:18:49;;;;;;;14.87;5.00;;;;;;;19.86;63.07;101226.53;4994045;28;20401;-79
2023/06/08 00:21:15;;;;;;;10.95;4.97;;;;;;;19.81;63.26;101223.69;4977396;28;20513;-79
2023/06/08 00:23:41;;;;;;;10.15;4.47;;;;;;;19.77;63.43;101224.31;4996039;28;20412;-78
2023/06/08 00:26:07;;;;;;;10.57;4.85;;;;;;;19.76;63.44;101228.06;4995537;28;20393;-79
2023/06/08 00:28:32;;;;;;;11.60;4.60;;;;;;;19.83;63.17;101218.91;4995098;28;20389;-79
2023/06/08 00:30:58;;;;;;;10.25;4.50;;;;;;;19.99;62.67;101219.41;4995172;28;20762;-78
2023/06/08 00:33:23;;;;;;;14.37;4.70;;;;;;;20.00;62.63;101218.34;4994438;28;20440;-77
2023/06/08 00:35:49;;;;;;;12.67;5.00;;;;;;;20.00;62.55;101224.53;4994276;28;20382;-79
2023/06/08 00:38:15;;;;;;;9.05;4.40;;;;;;;19.90;62.81;101218.84;4995025;28;20420;-78
2023/06/08 00:40:42;;;;;;;11.30;4.37;;;;;;;19.88;62.89;101220.94;4994997;28;20445;-79
2023/06/08 00:43:08;;;;;;;11.60;4.53;;;;;;;19.93;62.80;101212.19;4996973;28;20458;-79
2023/06/08 00:45:34;;;;;;;9.27;4.00;;;;;;;20.01;62.53;101214.63;4989927;28;20507;-78
2023/06/08 00:47:59;;;;;;;13.65;4.82;;;;;;;20.05;62.24;101213.94;5010008;28;20418;-79
2023/06/08 00:50:25;;;;;;;12.63;5.30;;;;;;;20.03;62.50;101217.91;5008840;28;20407;-79
2023/06/08 00:52:50;;;;;;;14.15;4.68;;;;;;;19.99;62.54;101217.53;5003240;28;20556;-80
2023/06/08 00:55:19;;;;;;;10.43;4.40;;;;;;;19.96;62.84;101222.53;5002944;28;20400;-78
2023/06/08 00:57:47;;;;;;;12.85;4.78;;;;;;;19.95;62.79;101212.78;5000748;28;20407;-79
2023/06/08 01:00:14;;;;;;;14.23;5.10;;;;;;;19.99;62.79;101214.84;5003684;28;20462;-79
2023/06/08 01:02:41;;;;;;;13.68;4.60;;;;;;;20.03;62.59;101213.34;5002688;28;20400;-79
2023/06/08 01:05:07;;;;;;;14.37;4.97;;;;;;;20.08;62.35;101210.00;5001213;28;20435;-79
2023/06/08 01:07:58;;;;;;;13.57;4.80;;;;;;;20.07;62.50;101210.22;5012128;28;20402;-79
2023/06/08 01:10:32;;;;;;;14.15;4.93;;;;;;;19.97;62.64;101200.78;4987022;28;20983;-79
2023/06/08 01:13:08;;;;;;;12.80;4.97;;;;;;;19.94;62.83;101190.44;5006807;28;20388;-80
2023/06/08 01:15:42;;;;;;;12.55;4.85;;;;;;;20.03;62.71;101201.75;5013323;28;20902;-79
2023/06/08 01:18:09;;;;;;;12.48;4.63;;;;;;;20.02;62.53;101202.78;4994939;28;20753;-79
2023/06/08 01:21:11;;;;;;;10.02;4.95;;;;;;;20.08;62.57;101207.31;5013774;28;20488;-81
2023/06/08 01:23:55;;;;;;;12.05;4.45;;;;;;;20.12;62.40;101199.63;5013628;28;20376;-78
2023/06/08 01:26:21;;;;;;;10.73;4.93;;;;;;;20.15;62.49;101201.84;5013052;28;20380;-79
2023/06/08 01:28:50;;;;;;;13.10;5.00;;;;;;;20.01;62.59;101195.78;5020394;28;20399;-79
2023/06/08 01:31:16;;;;;;;13.13;4.95;;;;;;;19.97;63.03;101197.25;5020946;28;20783;-79
2023/06/08 01:33:42;;;;;;;12.25;4.97;;;;;;;19.99;62.89;101197.88;5019990;28;20924;-79
2023/06/08 01:36:11;;;;;;;14.07;4.80;;;;;;;19.90;63.04;101183.88;5019602;28;20485;-78
2023/06/08 01:38:51;;;;;;;11.57;5.03;;;;;;;19.91;63.06;101185.50;5020102;28;20388;-80
2023/06/08 01:41:48;;;;;;;13.40;4.70;;;;;;;19.85;63.21;101189.09;5020506;28;20534;-79
2023/06/08 01:44:17;;;;;;;15.75;4.78;;;;;;;19.79;63.38;101181.88;5007857;28;20788;-79
2023/06/08 01:46:48;;;;;;;13.85;5.00;;;;;;;19.67;63.61;101171.81;5019998;28;20414;-81
2023/06/08 01:49:15;;;;;;;12.88;5.10;;;;;;;19.71;63.62;101176.75;5020560;28;20387;-79
2023/06/08 01:51:42;;;;;;;12.48;4.57;;;;;;;19.75;63.73;101183.38;5002945;28;20848;-79
2023/06/08 01:54:07;;;;;;;13.03;4.73;;;;;;;19.75;63.61;101183.38;5020107;28;20497;-79
2023/06/08 01:56:34;;;;;;;17.37;5.27;;;;;;;19.70;63.65;101189.38;5019624;28;20789;-78
2023/06/08 01:59:03;;;;;;;12.13;4.72;;;;;;;19.57;64.29;101184.09;5018290;28;21310;-78
2023/06/08 02:01:47;;;;;;;11.97;4.80;;;;;;;19.53;64.26;101186.41;5019546;28;20771;-79
2023/06/08 02:04:13;;;;;;;14.07;4.97;;;;;;;19.51;64.44;101183.09;5020478;28;20779;-80
2023/06/08 02:06:39;;;;;;;10.30;4.80;;;;;;;19.59;64.32;101185.53;5020232;28;20376;-79
2023/06/08 02:09:05;;;;;;;9.30;5.03;;;;;;;19.55;64.32;101178.94;5020002;28;20390;-79
2023/06/08 02:11:31;;;;;;;10.90;5.00;;;;;;;19.55;64.16;101183.50;5020271;28;20386;-79
2023/06/08 02:13:56;;;;;;;14.25;5.22;;;;;;;19.54;64.22;101171.09;5019633;28;20384;-78
2023/06/08 02:16:22;;;;;;;14.77;5.07;;;;;;;19.51;64.25;101174.22;5020277;28;20410;-79
2023/06/08 02:18:50;;;;;;;12.43;5.10;;;;;;;19.42;64.45;101165.59;5019589;28;20462;-79
2023/06/08 02:21:15;;;;;;;14.60;5.33;;;;;;;19.54;64.28;101179.19;5019709;28;20435;-79
2023/06/08 02:23:41;;;;;;;12.02;5.13;;;;;;;19.71;63.68;101172.19;5019293;28;20480;-78
2023/06/08 02:26:07;;;;;;;16.90;5.25;;;;;;;19.77;63.21;101159.75;5020159;28;20388;-78
2023/06/08 02:28:34;;;;;;;13.88;4.82;;;;;;;19.70;63.45;101167.03;5019247;28;20772;-78
2023/06/08 02:31:00;;;;;;;13.83;5.10;;;;;;;19.60;63.80;101162.16;5020108;28;20466;-79
2023/06/08 02:33:27;;;;;;;12.40;5.17;;;;;;;19.54;63.86;101165.72;5019870;28;20484;-79
2023/06/08 02:35:53;;;;;;;16.00;5.53;;;;;;;19.60;63.84;101159.47;5019082;28;20393;-78
2023/06/08 02:38:18;;;;;;;10.83;4.93;;;;;;;19.68;63.59;101161.88;5000341;28;20710;-78
2023/06/08 02:40:44;;;;;;;13.55;5.07;;;;;;;19.83;63.15;101164.28;5015239;28;20415;-79
2023/06/08 02:43:09;;;;;;;16.20;5.20;;;;;;;19.80;63.05;101157.44;5015737;28;20888;-78
2023/06/08 02:45:35;;;;;;;16.75;5.40;;;;;;;19.82;63.00;101168.81;5020838;28;20464;-79
2023/06/08 02:48:01;;;;;;;16.60;5.03;;;;;;;19.68;63.18;101153.81;5021385;28;20735;-79
2023/06/08 02:50:26;;;;;;;14.90;5.55;;;;;;;19.72;63.25;101165.78;5017554;28;20376;-79
2023/06/08 02:52:53;;;;;;;11.47;4.80;;;;;;;19.79;62.93;101163.03;5017527;28;20394;-81
2023/06/08 02:55:19;;;;;;;10.82;4.65;;;;;;;19.92;62.58;101171.03;5017061;28;20384;-79
2023/06/08 02:57:49;;;;;;;13.15;5.28;;;;;;;19.96;62.17;101174.91;5016849;28;20400;-78
2023/06/08 03:00:15;;;;;;;13.87;5.43;;;;;;;19.99;62.14;101176.34;4998979;28;20399;-79
2023/06/08 03:02:41;;;;;;;9.32;4.85;;;;;;;19.89;61.99;101174.13;5018298;28;20400;-78
2023/06/08 03:05:07;;;;;;;17.23;5.47;;;;;;;19.80;62.55;101172.78;5024492;28;20392;-78
2023/06/08 03:07:33;;;;;;;12.02;5.22;;;;;;;19.70;62.73;101169.72;5017041;28;20477;-80
2023/06/08 03:10:02;;;;;;;12.85;5.00;;;;;;;19.57;63.28;101171.50;5015993;28;20384;-79
2023/06/08 03:12:29;;;;;;;14.68;4.88;;;;;;;19.61;63.16;101178.06;5014927;28;20391;-78
2023/06/08 03:14:54;;;;;;;13.30;5.60;;;;;;;19.61;63.18;101179.94;5014999;28;20384;-79
2023/06/08 03:17:20;;;;;;;9.68;4.60;;;;;;;19.66;63.06;101183.63;5014937;28;20737;-78
2023/06/08 03:19:45;;;;;;;13.33;5.17;;;;;;;19.82;62.58;101176.88;5014085;28;20493;-78
2023/06/08 03:22:11;;;;;;;12.80;5.00;;;;;;;19.91;62.23;101182.81;5013999;28;20883;-78
2023/06/08 03:24:37;;;;;;;8.90;4.60;;;;;;;19.92;62.20;101178.28;5013951;28;20400;-78
2023/06/08 03:27:06;;;;;;;14.48;5.15;;;;;;;19.95;62.05;101192.13;4980958;28;20400;-78
2023/06/08 03:29:31;;;;;;;13.70;5.22;;;;;;;19.87;62.06;101178.91;5014058;28;20774;-77
2023/06/08 03:31:58;;;;;;;12.10;4.77;;;;;;;19.94;62.05;101190.44;5013186;28;20928;-78
2023/06/08 03:34:27;;;;;;;12.88;4.57;;;;;;;19.95;61.96;101193.94;5014546;28;20395;-78
2023/06/08 03:36:53;;;;;;;10.27;5.15;;;;;;;19.90;62.05;101197.31;4996446;28;20388;-78
2023/06/08 03:39:19;;;;;;;12.85;5.00;;;;;;;19.83;62.46;101192.00;5013699;28;20737;-78
2023/06/08 03:41:45;;;;;;;9.27;4.63;;;;;;;19.77;62.41;101192.88;5013841;28;20885;-79
2023/06/08 03:44:10;;;;;;;10.53;5.10;;;;;;;19.83;62.39;101188.50;5014045;28;20400;-78
2023/06/08 03:46:36;;;;;;;13.32;5.13;;;;;;;19.90;62.16;101196.47;5013867;28;20395;-78
2023/06/08 03:49:01;;;;;;;15.63;5.40;;;;;;;19.93;62.13;101186.09;4996004;28;20935;-79
2023/06/08 03:51:27;;;;;;;13.82;5.13;;;;;;;19.90;62.17;101191.94;5012656;28;20376;-78
2023/06/08 03:53:52;;;;;;;13.57;5.73;;;;;;;19.97;62.26;101199.94;5012260;28;20772;-81
2023/06/08 03:56:18;;;;;;;12.07;5.60;;;;;;;20.04;62.18;101203.38;5013287;28;20821;-78
2023/06/08 03:58:44;;;;;;;15.48;5.70;;;;;;;20.11;61.88;101200.66;4995776;28;20395;-78
2023/06/08 04:01:11;;;;;;;14.80;5.53;;;;;;;20.23;61.82;101212.34;5011063;28;20419;-78
2023/06/08 04:03:38;;;;;;;14.10;6.18;;;;;;;20.16;61.62;101212.41;5012833;28;20391;-78
2023/06/08 04:06:08;;;;;;;14.02;6.20;;;;;;;20.27;61.67;101213.53;5012322;28;20439;-79
2023/06/08 04:08:40;;;;;;;15.10;5.97;;;;;;;20.30;61.44;101214.97;5013022;28;20879;-79
2023/06/08 04:11:08;;;;;;;19.05;6.75;;;;;;;20.31;61.52;101220.16;5012700;28;20794;-79
2023/06/08 04:13:37;;;;;;;18.40;6.38;;;;;;;20.32;61.69;101219.06;5012755;28;20384;-79
2023/06/08 04:16:08;;;;;;;16.40;7.63;;;;;;;20.47;61.42;101217.91;5012515;28;20442;-80
2023/06/08 04:18:34;;;;;;;23.63;8.40;;;;;;;20.43;60.96;101215.66;5012801;28;20423;-79
2023/06/08 04:20:59;;;;;;;16.48;7.95;;;;;;;20.38;61.00;101215.50;5012085;28;20418;-78
2023/06/08 04:23:27;;;;;;;15.23;6.57;;;;;;;20.37;61.20;101210.34;5011314;28;20392;-78
2023/06/08 04:25:52;;;;;;;9.47;4.93;;;;;;;20.33;60.57;101220.75;5011207;28;20455;-79
2023/06/08 04:28:18;;;;;;;14.32;5.72;;;;;;;20.30;60.70;101220.34;5012133;28;20473;-78
2023/06/08 04:30:44;;;;;;;12.10;5.77;;;;;;;20.40;60.55;101210.72;5028201;28;20382;-78
2023/06/08 04:33:09;;;;;;;11.45;4.82;;;;;;;20.36;60.13;101206.00;5011891;28;20451;-78
2023/06/08 04:35:35;;;;;;;14.38;5.05;;;;;;;20.36;60.17;101211.38;5010523;28;20408;-78
2023/06/08 04:38:01;;;;;;;11.48;5.15;;;;;;;20.46;60.21;101213.56;5012834;28;20384;-79
2023/06/08 04:40:29;;;;;;;12.33;5.00;;;;;;;20.31;59.91;101213.91;4991046;28;20385;-79
2023/06/08 04:42:54;;;;;;;11.23;5.07;;;;;;;20.39;60.00;101213.63;5019153;28;20742;-79
2023/06/08 04:45:20;;;;;;;14.93;5.13;;;;;;;20.41;59.79;101211.53;5015800;28;20388;-77
2023/06/08 04:47:46;;;;;;;15.17;4.93;;;;;;;20.41;59.79;101216.94;5011648;28;20404;-78
2023/06/08 04:50:12;;;;;;;13.32;5.18;;;;;;;20.38;59.48;101215.50;5012318;28;20395;-78
2023/06/08 04:52:40;;;;;;;15.27;6.00;;;;;;;20.44;59.32;101220.00;5012441;28;20392;-78
2023/06/08 04:55:13;;;;;;;9.25;4.55;;;;;;;20.48;58.92;101228.44;5012718;28;20431;-79
2023/06/08 04:57:41;;;;;;;13.60;4.63;;;;;;;20.49;58.76;101221.19;4991729;28;20413;-77
2023/06/08 05:00:09;;;;;;;5.18;4.05;;;;;;;20.53;58.57;101230.50;4993701;28;20424;-78
2023/06/08 05:02:38;;;;;;;13.55;4.82;;;;;;;20.58;58.15;101219.84;5005346;28;20416;-79
2023/06/08 05:05:05;;;;;;;10.40;4.50;;;;;;;20.51;58.03;101224.47;4994334;28;20862;-79
2023/06/08 05:07:31;;;;;;;13.20;4.60;;;;;;;20.66;57.75;101229.53;4993834;28;20393;-78
2023/06/08 05:10:00;;;;;;;10.40;4.70;;;;;;;20.71;57.33;101235.09;4994249;28;20385;-79
2023/06/08 05:12:29;;;;;;;9.87;4.50;;;;;;;20.75;57.16;101236.28;5009073;28;20377;-79
2023/06/08 05:14:55;;;;;;;7.00;4.30;;;;;;;20.78;56.90;101225.88;5013389;28;20409;-78
2023/06/08 05:17:22;;;;;;;10.30;4.43;;;;;;;20.68;56.51;101239.03;5009775;28;20385;-77
2023/06/08 05:19:49;;;;;;;11.88;4.28;;;;;;;20.56;55.96;101243.47;5007041;28;20385;-79
2023/06/08 05:22:15;;;;;;;9.13;3.90;;;;;;;20.66;56.43;101240.31;4998156;28;20413;-79
2023/06/08 05:24:40;;;;;;;9.48;4.22;;;;;;;20.75;56.14;101237.09;4996100;28;20391;-79
2023/06/08 05:27:06;;;;;;;12.20;4.73;;;;;;;20.77;55.40;101234.19;4994763;28;20385;-78
2023/06/08 05:29:32;;;;;;;7.43;4.20;;;;;;;20.87;55.47;101236.31;5001101;28;20406;-79
2023/06/08 05:31:58;;;;;;;10.10;4.20;;;;;;;20.93;55.45;101246.22;5001008;28;20455;-79
2023/06/08 05:34:23;;;;;;;12.00;4.23;;;;;;;20.99;55.33;101250.69;4995551;28;20468;-81
2023/06/08 05:36:49;;;;;;;11.77;4.50;;;;;;;20.99;54.95;101251.53;4993672;28;20386;-80
2023/06/08 05:39:14;;;;;;;9.60;4.17;;;;;;;20.98;54.87;101254.47;4993812;28;20468;-78
2023/06/08 05:41:40;;;;;;;7.80;4.17;;;;;;;21.02;54.76;101250.25;4975762;28;20413;-79
2023/06/08 05:44:05;;;;;;;8.33;3.90;;;;;;;21.12;54.15;101247.00;4994851;28;20389;-78
2023/06/08 05:46:31;;;;;;;8.67;3.97;;;;;;;21.05;54.38;101252.50;4993528;28;20385;-78
2023/06/08 05:48:56;;;;;;;7.47;3.90;;;;;;;21.09;54.41;101247.47;4992346;28;20859;-76
2023/06/08 05:51:22;;;;;;;11.07;4.37;;;;;;;21.17;54.39;101255.25;5001469;28;21148;-81
2023/06/08 05:53:48;;;;;;;7.80;3.85;;;;;;;21.04;53.76;101252.72;4994242;28;20390;-78
2023/06/08 05:56:14;;;;;;;7.87;4.13;;;;;;;21.05;54.12;101254.34;4999198;28;20410;-79
2023/06/08 05:58:39;;;;;;;7.63;4.13;;;;;;;21.12;54.02;101258.63;5003034;28;20392;-81
2023/06/08 06:01:07;;;;;;;8.45;4.03;;;;;;;21.17;53.97;101250.66;5006997;28;20401;-79
2023/06/08 06:03:32;;;;;;;6.25;3.83;;;;;;;21.20;53.76;101247.53;5004071;28;20388;-79
2023/06/08 06:05:58;;;;;;;8.37;4.23;;;;;;;21.22;53.90;101246.47;5003298;28;20458;-78
2023/06/08 06:08:24;;;;;;;7.88;3.97;;;;;;;21.15;53.59;101262.75;5006952;28;20378;-78
2023/06/08 06:10:49;;;;;;;8.15;3.97;;;;;;;21.13;53.66;101249.47;5002560;28;20378;-79
2023/06/08 06:13:15;;;;;;;9.50;4.40;;;;;;;21.29;53.73;101253.44;5004042;28;20392;-77
2023/06/08 06:15:40;;;;;;;11.25;4.05;;;;;;;21.30;53.49;101248.84;4989652;28;20883;-78
2023/06/08 06:18:06;;;;;;;8.50;4.13;;;;;;;21.38;53.22;101262.03;4981689;28;20390;-79
2023/06/08 06:20:31;;;;;;;12.43;4.50;;;;;;;21.35;53.15;101259.78;4998568;28;20384;-78
2023/06/08 06:22:57;;;;;;;9.43;4.23;;;;;;;21.47;53.01;101273.34;5000348;28;20394;-78
2023/06/08 06:25:22;;;;;;;8.40;4.40;;;;;;;21.27;52.86;101265.50;5000400;28;20490;-77
2023/06/08 06:27:49;;;;;;;9.38;4.20;;;;;;;21.37;53.15;101274.69;5005535;28;20477;-78
2023/06/08 06:30:15;;;;;;;8.45;4.38;;;;;;;21.56;53.00;101267.38;5000116;28;20396;-79
2023/06/08 06:32:41;;;;;;;9.67;4.20;;;;;;;21.61;52.89;101279.38;5014898;28;20392;-78
2023/06/08 06:35:07;;;;;;;9.00;4.00;;;;;;;21.62;52.69;101271.03;5015883;28;20384;-77
2023/06/08 06:37:35;;;;;;;7.82;3.83;;;;;;;21.75;52.70;101273.56;5017905;28;20380;-79
2023/06/08 06:40:04;;;;;;;6.60;4.38;;;;;;;21.80;52.58;101274.75;5023860;28;20388;-81
2023/06/08 06:42:30;;;;;;;9.25;3.92;;;;;;;21.91;52.55;101263.97;5016863;28;20411;-80
2023/06/08 06:44:56;;;;;;;8.27;4.03;;;;;;;22.02;52.12;101272.31;5015389;28;20399;-77
2023/06/08 06:47:21;;;;;;;8.80;4.15;;;;;;;22.04;51.96;101278.28;5015058;28;20380;-78
2023/06/08 06:49:47;;;;;;;9.80;4.63;;;;;;;22.00;51.66;101272.53;5015802;28;20412;-82
2023/06/08 06:52:12;;;;;;;6.90;3.83;;;;;;;22.16;51.87;101273.72;5012175;28;20849;-78
2023/06/08 06:54:38;;;;;;;11.75;5.65;;;;;;;22.23;51.20;101265.53;5014932;28;20895;-77
2023/06/08 06:57:03;;;;;;;8.27;4.67;;;;;;;22.24;50.90;101273.41;5020330;28;20465;-80
2023/06/08 06:59:29;;;;;;;6.93;3.90;;;;;;;22.38;50.57;101259.69;5008881;28;20408;-78
2023/06/08 07:01:55;;;;;;;12.45;4.40;;;;;;;22.51;50.82;101254.88;4996589;28;20425;-80
2023/06/08 07:04:22;;;;;;;9.70;4.38;;;;;;;22.53;50.55;101252.75;4999426;28;20411;-79
2023/06/08 07:06:49;;;;;;;10.83;4.23;;;;;;;22.53;50.38;101260.84;5016391;28;20690;-80
2023/06/08 07:09:16;;;;;;;6.75;3.92;;;;;;;22.94;50.61;101268.19;5009695;28;20396;-77
2023/06/08 07:11:41;;;;;;;7.68;3.70;;;;;;;23.41;49.61;101257.25;5015555;28;20526;-79
2023/06/08 07:14:07;;;;;;;7.15;3.92;;;;;;;23.61;48.84;101259.50;5005721;28;20394;-76
2023/06/08 07:16:32;;;;;;;8.07;4.00;;;;;;;23.57;48.51;101256.44;5015062;28;20848;-78
2023/06/08 07:18:58;;;;;;;12.60;7.50;;;;;;;23.59;48.56;101254.31;5015505;28;20380;-80
2023/06/08 07:21:23;;;;;;;7.85;4.38;;;;;;;23.59;48.75;101254.31;5012455;28;20399;-77
2023/06/08 07:23:50;;;;;;;7.80;3.83;;;;;;;24.01;47.90;101248.53;4993889;28;20486;-79
2023/06/08 07:26:16;;;;;;;8.67;4.13;;;;;;;24.11;47.25;101247.06;4994545;28;20393;-78
2023/06/08 07:28:42;;;;;;;9.63;5.30;;;;;;;24.08;47.62;101251.09;4996073;28;20427;-80
2023/06/08 07:31:07;;;;;;;10.23;4.90;;;;;;;24.13;47.42;101250.34;4995875;28;20389;-79
2023/06/08 07:33:33;;;;;;;9.00;4.03;;;;;;;24.10;46.92;101240.00;5001864;28;20482;-77
2023/06/08 07:35:59;;;;;;;8.27;4.18;;;;;;;24.07;47.31;101240.50;5001600;28;20456;-79
2023/06/08 07:38:25;;;;;;;9.13;4.22;;;;;;;24.19;47.26;101250.16;5015332;28;20380;-81
2023/06/08 07:40:51;;;;;;;6.05;4.00;;;;;;;24.25;47.11;101240.22;4997299;28;20408;-78
2023/06/08 07:43:16;;;;;;;6.38;4.28;;;;;;;24.36;47.07;101247.44;5014670;28;20483;-79
2023/06/08 07:45:42;;;;;;;8.48;4.43;;;;;;;24.53;47.27;101242.00;5013905;28;20404;-78
2023/06/08 07:48:07;;;;;;;7.97;4.07;;;;;;;24.40;46.72;101237.75;5014935;28;20491;-79
2023/06/08 07:50:33;;;;;;;9.97;4.60;;;;;;;24.43;46.86;101242.69;5013802;28;20403;-78
2023/06/08 07:52:59;;;;;;;10.63;4.10;;;;;;;24.47;46.53;101243.00;5013833;28;20423;-77
2023/06/08 07:55:24;;;;;;;9.10;3.97;;;;;;;24.44;46.77;101240.78;5012884;28;20387;-78
2023/06/08 07:57:50;;;;;;;10.47;4.40;;;;;;;24.33;46.98;101230.88;4997101;28;20679;-78
2023/06/08 08:00:17;;;;;;;7.17;4.13;;;;;;;24.40;46.47;101239.66;5014769;28;20375;-78
2023/06/08 08:02:43;;;;;;;7.27;4.10;;;;;;;24.52;46.27;101236.81;5013230;28;20422;-78
2023/06/08 08:05:08;;;;;;;10.50;4.25;;;;;;;24.41;46.68;101241.28;5012164;28;20392;-78
2023/06/08 08:07:35;;;;;;;8.23;4.47;;;;;;;24.37;46.47;101223.88;5014302;28;20457;-80
2023/06/08 08:10:01;;;;;;;10.45;4.38;;;;;;;24.31;46.63;101238.41;5015078;28;20391;-79
2023/06/08 08:12:26;;;;;;;8.02;4.75;;;;;;;24.27;46.70;101234.56;5014754;28;20372;-78
2023/06/08 08:14:52;;;;;;;8.43;4.67;;;;;;;24.43;46.86;101231.84;5014713;28;20442;-80
2023/06/08 08:17:17;;;;;;;7.20;4.20;;;;;;;24.41;46.23;101228.53;5012834;28;20884;-77
2023/06/08 08:19:43;;;;;;;10.77;4.57;;;;;;;24.47;46.11;101228.59;5012921;28;20427;-79
2023/06/08 08:22:08;;;;;;;10.40;5.27;;;;;;;24.45;45.96;101236.97;5013208;28;20415;-79
2023/06/08 08:24:34;;;;;;;6.28;4.20;;;;;;;24.63;46.12;101235.91;5013955;28;20845;-79
2023/06/08 08:27:00;;;;;;;8.97;4.60;;;;;;;24.60;45.85;101237.22;5013585;28;20391;-78
2023/06/08 08:29:25;;;;;;;11.60;4.30;;;;;;;24.46;46.42;101238.63;5013320;28;20396;-78
2023/06/08 08:31:51;;;;;;;9.40;4.30;;;;;;;24.85;46.21;101230.50;5014713;28;20415;-78
2023/06/08 08:34:16;;;;;;;8.00;4.67;;;;;;;25.20;45.95;101229.25;5018932;28;20414;-80
2023/06/08 08:36:42;;;;;;;8.05;4.50;;;;;;;25.46;45.48;101230.38;5015798;28;20380;-81
2023/06/08 08:39:09;;;;;;;10.40;4.00;;;;;;;25.58;45.20;101232.91;5013125;28;20471;-78
2023/06/08 08:41:40;;;;;;;10.57;4.30;;;;;;;25.62;45.10;101235.91;5016219;28;20400;-80
2023/06/08 08:44:13;;;;;;;7.97;4.05;;;;;;;25.61;45.01;101232.38;5014246;28;20479;-78
2023/06/08 08:46:39;;;;;;;6.93;4.60;;;;;;;25.71;44.75;101235.19;5013701;28;20376;-80
2023/06/08 08:49:15;;;;;;;8.57;4.50;;;;;;;25.78;44.32;101231.44;5013539;28;20487;-81
2023/06/08 08:51:49;;;;;;;8.45;4.35;;;;;;;25.81;44.49;101228.22;5017240;28;20406;-80
2023/06/08 08:54:15;;;;;;;7.40;4.30;;;;;;;25.89;44.39;101227.72;5004062;28;20381;-80
2023/06/08 08:56:42;;;;;;;6.50;4.30;;;;;;;25.85;43.90;101226.59;5016087;28;20444;-80
2023/06/08 08:59:08;;;;;;;7.40;4.47;;;;;;;25.79;43.88;101223.03;5016238;28;20376;-79
2023/06/08 09:01:34;;;;;;;9.93;4.57;;;;;;;25.83;43.89;101231.47;5016087;28;20399;-78
2023/06/08 09:04:01;;;;;;;6.80;4.50;;;;;;;25.69;44.02;101228.38;5015573;28;20403;-81
2023/06/08 09:06:29;;;;;;;11.07;5.07;;;;;;;25.71;43.94;101223.50;5015111;28;20474;-79
2023/06/08 09:08:55;;;;;;;9.85;4.60;;;;;;;25.80;44.32;101213.78;5014833;28;20376;-78
2023/06/08 09:11:21;;;;;;;8.57;4.47;;;;;;;25.60;45.05;101221.78;4997562;28;20761;-80
2023/06/08 09:13:46;;;;;;;10.40;4.63;;;;;;;25.75;44.39;101224.63;4980866;28;20902;-78
2023/06/08 09:16:16;;;;;;;11.77;4.70;;;;;;;25.81;44.08;101225.50;5013815;28;20384;-78
2023/06/08 09:18:45;;;;;;;6.75;4.20;;;;;;;25.63;44.62;101224.00;4995886;28;20384;-80
2023/06/08 09:21:27;;;;;;;11.57;4.88;;;;;;;25.89;44.75;101217.69;5012890;28;20412;-79
2023/06/08 09:24:03;;;;;;;9.00;4.32;;;;;;;26.17;44.12;101218.44;4995492;28;20493;-79
2023/06/08 09:26:32;;;;;;;8.20;4.40;;;;;;;26.28;43.85;101211.16;4996567;28;20420;-80
2023/06/08 09:29:03;;;;;;;7.72;4.40;;;;;;;26.31;43.63;101210.66;5015638;28;20380;-81
2023/06/08 09:31:30;;;;;;;10.02;4.80;;;;;;;26.47;43.84;101209.63;5014080;28;20380;-79
2023/06/08 09:34:09;;;;;;;8.15;4.53;;;;;;;26.48;43.76;101219.41;4992530;28;20382;-79
2023/06/08 09:36:37;;;;;;;8.37;4.30;;;;;;;26.59;43.94;101200.44;4994480;28;20712;-78
2023/06/08 09:39:07;;;;;;;7.63;4.57;;;;;;;26.80;43.13;101204.91;4977266;28;20421;-78
2023/06/08 09:41:36;;;;;;;7.18;4.10;;;;;;;26.86;43.45;101201.09;4993250;28;20432;-79
2023/06/08 09:44:16;;;;;;;8.57;4.50;;;;;;;26.89;43.06;101205.19;4994553;28;20392;-79
2023/06/08 09:46:45;;;;;;;8.48;4.00;;;;;;;26.99;43.21;101198.97;4979991;28;20393;-79
2023/06/08 09:49:13;;;;;;;8.80;4.20;;;;;;;26.96;43.09;101197.59;4994319;28;20389;-78
2023/06/08 09:51:51;;;;;;;6.38;3.78;;;;;;;27.02;43.36;101187.53;4996715;28;20390;-78
2023/06/08 09:54:18;;;;;;;8.23;3.90;;;;;;;27.19;42.58;101192.75;4999141;28;20400;-82
2023/06/08 09:56:53;;;;;;;7.78;4.05;;;;;;;27.35;42.66;101188.16;4997919;28;20420;-78
2023/06/08 09:59:22;;;;;;;9.65;4.10;;;;;;;27.41;42.72;101187.09;4998102;28;20425;-80
2023/06/08 10:01:53;;;;;;;7.20;3.75;;;;;;;27.53;42.51;101178.63;4996052;28;20418;-81
2023/06/08 10:04:39;;;;;;;8.27;3.80;;;;;;;27.47;41.99;101177.81;4995312;28;20882;-77
2023/06/08 10:07:17;;;;;;;8.45;3.50;;;;;;;27.41;42.05;101189.81;4994627;28;20389;-79
2023/06/08 10:09:44;;;;;;;5.70;3.73;;;;;;;27.52;41.61;101174.31;4995502;28;20386;-78
2023/06/08 10:12:11;;;;;;;6.30;3.20;;;;;;;27.32;41.19;101172.41;5014405;28;20384;-80
2023/06/08 10:14:37;;;;;;;7.55;3.20;;;;;;;27.48;41.38;101176.75;5020886;28;20423;-78
2023/06/08 10:17:03;;;;;;;7.68;3.30;;;;;;;27.46;40.82;101168.03;5018064;28;20391;-79
2023/06/08 10:19:34;;;;;;;9.82;4.38;;;;;;;27.40;41.32;101172.66;5016784;28;20931;-79
2023/06/08 10:22:01;;;;;;;8.13;3.30;;;;;;;27.67;41.37;101165.28;5016669;28;20396;-79
2023/06/08 10:24:27;;;;;;;6.40;3.38;;;;;;;27.77;40.59;101165.28;5016128;28;20459;-77
2023/06/08 10:27:26;;;;;;;5.10;3.25;;;;;;;27.79;40.93;101153.03;5016339;28;20384;-81
2023/06/08 10:30:02;;;;;;;8.45;3.33;;;;;;;28.05;40.17;101152.19;5016013;28;20403;-78
2023/06/08 10:32:38;;;;;;;8.73;3.35;;;;;;;28.14;40.16;101147.78;5021486;28;20837;-80
2023/06/08 10:35:06;;;;;;;6.68;3.40;;;;;;;28.01;40.30;101146.47;5018157;28;20845;-78
2023/06/08 10:37:33;;;;;;;8.07;3.15;;;;;;;28.08;40.38;101144.25;5016062;28;20411;-82
2023/06/08 10:40:00;;;;;;;6.33;3.37;;;;;;;27.98;39.84;101145.13;5016662;28;20703;-81
2023/06/08 10:42:26;;;;;;;4.63;2.80;;;;;;;27.80;40.34;101145.66;5017332;28;20404;-78
2023/06/08 10:44:54;;;;;;;9.52;3.15;;;;;;;27.97;39.43;101142.66;4999991;28;20376;-79
2023/06/08 10:47:19;;;;;;;4.23;2.77;;;;;;;28.13;39.15;101133.34;5016693;28;20419;-78
2023/06/08 10:49:51;;;;;;;6.28;2.60;;;;;;;28.23;37.39;101129.75;5018925;28;20380;-78
2023/06/08 10:52:18;;;;;;;5.15;2.60;;;;;;;28.22;37.21;101128.94;5017657;28;20392;-81
2023/06/08 10:54:59;;;;;;;6.10;2.72;;;;;;;28.33;37.26;101128.91;5016066;28;20450;-81
2023/06/08 10:57:49;;;;;;;4.67;2.57;;;;;;;28.36;37.58;101118.25;5016090;28;20898;-79
2023/06/08 11:00:29;;;;;;;7.33;2.90;;;;;;;28.63;37.45;101113.50;5015638;28;20376;-79
2023/06/08 11:03:04;;;;;;;5.97;2.60;;;;;;;28.68;36.88;101119.75;5014465;28;20400;-79
2023/06/08 11:05:40;;;;;;;7.78;2.63;;;;;;;28.45;37.16;101106.75;5015591;28;20388;-78
2023/06/08 11:08:07;;;;;;;5.43;2.45;;;;;;;28.47;37.18;101099.09;5019391;28;20384;-78
2023/06/08 11:10:33;;;;;;;7.30;2.60;;;;;;;28.71;36.42;101094.63;5015008;28;20387;-79
2023/06/08 11:13:06;;;;;;;5.03;2.50;;;;;;;28.63;36.42;101089.78;5015389;28;20376;-79
2023/06/08 11:15:35;;;;;;;3.60;2.30;;;;;;;28.66;36.29;101096.59;4981520;28;20402;-79
2023/06/08 11:18:00;;;;;;;7.82;2.80;;;;;;;28.62;36.31;101085.44;4998393;28;20385;-77
2023/06/08 11:20:27;;;;;;;5.97;2.70;;;;;;;28.57;37.11;101082.72;5014530;28;20443;-80
2023/06/08 11:22:53;;;;;;;5.32;2.72;;;;;;;28.75;37.47;101083.97;5015681;28;20411;-79
2023/06/08 11:25:23;;;;;;;8.07;2.90;;;;;;;28.81;37.42;101079.28;5015414;28;20380;-78